createdAt,value
2023-01-26T00:02:24.023Z,15.60
2023-01-26T00:04:52.570Z,13.95
2023-01-26T00:07:21.071Z,12.35
2023-01-26T00:09:49.495Z,14.15
2023-01-26T00:12:17.897Z,13.55
2023-01-26T00:14:52.296Z,16.48
2023-01-26T00:17:28.427Z,15.15
2023-01-26T00:19:58.872Z,12.57
2023-01-26T00:22:28.523Z,15.45
2023-01-26T00:24:57.287Z,10.27
2023-01-26T00:27:25.732Z,13.25
2023-01-26T00:29:54.372Z,14.60
2023-01-26T00:32:24.610Z,14.77
2023-01-26T00:34:53.108Z,15.93
2023-01-26T00:37:21.571Z,16.63
2023-01-26T00:39:52.430Z,17.95
2023-01-26T00:42:21.810Z,14.82
2023-01-26T00:44:50.170Z,12.23
2023-01-26T00:47:19.476Z,14.10
2023-01-26T00:49:49.341Z,13.35
2023-01-26T00:52:17.909Z,15.80
2023-01-26T00:54:46.352Z,13.23
2023-01-26T00:57:16.422Z,12.65
2023-01-26T00:59:44.904Z,11.02
2023-01-26T01:02:13.588Z,16.02
2023-01-26T01:04:42.046Z,13.48
2023-01-26T01:07:11.945Z,13.13
2023-01-26T01:09:40.416Z,15.77
2023-01-26T01:12:09.054Z,17.17
2023-01-26T01:14:37.482Z,16.95
2023-01-26T01:17:05.971Z,11.45
2023-01-26T01:19:34.700Z,15.88
2023-01-26T01:22:03.318Z,15.70
2023-01-26T01:24:34.349Z,14.73
2023-01-26T01:27:02.839Z,16.15
2023-01-26T01:29:31.321Z,16.02
2023-01-26T01:32:00.160Z,14.43
2023-01-26T01:34:29.558Z,14.43
2023-01-26T01:36:58.040Z,16.20
2023-01-26T01:39:26.530Z,12.63
2023-01-26T01:41:56.414Z,16.55
2023-01-26T01:44:26.740Z,15.00
2023-01-26T01:46:58.138Z,17.65
2023-01-26T01:49:30.414Z,15.00
2023-01-26T01:52:06.123Z,18.40
2023-01-26T01:54:39.335Z,18.75
2023-01-26T01:57:17.626Z,15.57
2023-01-26T01:59:52.652Z,15.77
2023-01-26T02:02:21.604Z,17.13
2023-01-26T02:04:50.209Z,15.18
2023-01-26T02:07:18.796Z,16.65
2023-01-26T02:10:04.844Z,16.63
2023-01-26T02:12:36.809Z,14.63
2023-01-26T02:15:05.915Z,15.57
2023-01-26T02:17:34.388Z,15.70
2023-01-26T02:20:09.525Z,14.13
2023-01-26T02:22:46.669Z,16.45
2023-01-26T02:25:26.685Z,19.85
2023-01-26T02:27:56.836Z,18.20
2023-01-26T02:30:26.191Z,15.80
2023-01-26T02:32:54.616Z,15.77
2023-01-26T02:35:23.190Z,16.15
2023-01-26T02:37:51.666Z,14.15
2023-01-26T02:40:33.619Z,15.10
2023-01-26T02:43:02.606Z,16.25
2023-01-26T02:45:33.995Z,20.35
2023-01-26T02:48:04.737Z,20.20
2023-01-26T02:50:32.777Z,16.95
2023-01-26T02:53:02.001Z,14.93
2023-01-26T02:55:31.361Z,16.65
2023-01-26T02:58:01.618Z,16.77
2023-01-26T03:00:37.204Z,16.33
2023-01-26T03:03:13.123Z,17.50
2023-01-26T03:05:41.981Z,19.08
2023-01-26T03:08:10.514Z,19.48
2023-01-26T03:10:39.993Z,16.40
2023-01-26T03:13:08.918Z,15.73
2023-01-26T03:15:47.986Z,17.20
2023-01-26T03:18:35.677Z,14.88
2023-01-26T03:21:23.686Z,13.15
2023-01-26T03:24:09.904Z,12.98
2023-01-26T03:26:57.580Z,17.73
2023-01-26T03:29:27.394Z,12.35
2023-01-26T03:32:00.441Z,13.88
2023-01-26T03:36:59.251Z,18.08
2023-01-26T03:39:49.869Z,15.23
2023-01-26T03:42:37.244Z,14.45
2023-01-26T03:45:24.220Z,15.25
2023-01-26T03:48:12.282Z,15.50
2023-01-26T03:50:58.314Z,16.45
2023-01-26T03:53:44.460Z,17.05
2023-01-26T03:56:21.932Z,15.57
2023-01-26T03:58:54.037Z,16.50
2023-01-26T04:01:27.704Z,14.43
2023-01-26T04:04:17.123Z,13.77
2023-01-26T04:07:07.233Z,15.48
2023-01-26T04:09:39.534Z,12.57
2023-01-26T04:12:10.358Z,13.02
2023-01-26T04:15:03.139Z,15.45
2023-01-26T04:17:49.172Z,17.75
2023-01-26T04:20:36.657Z,14.32
2023-01-26T04:23:05.119Z,17.67
2023-01-26T04:25:33.617Z,21.15
2023-01-26T04:28:02.080Z,14.82
2023-01-26T04:30:31.276Z,17.30
2023-01-26T04:32:59.829Z,16.20
2023-01-26T04:35:29.607Z,15.90
2023-01-26T04:37:58.492Z,15.25
2023-01-26T04:40:27.109Z,16.33
2023-01-26T04:42:55.861Z,16.55
2023-01-26T04:45:24.387Z,17.77
2023-01-26T04:47:53.253Z,13.57
2023-01-26T04:50:21.959Z,15.02
2023-01-26T04:52:51.997Z,17.00
2023-01-26T04:55:21.493Z,15.20
2023-01-26T04:57:49.895Z,19.98
2023-01-26T05:00:19.017Z,15.50
2023-01-26T05:02:47.524Z,12.35
2023-01-26T05:05:16.431Z,16.17
2023-01-26T05:07:44.967Z,17.75
2023-01-26T05:10:17.560Z,19.58
2023-01-26T05:13:06.410Z,15.75
2023-01-26T05:15:43.665Z,17.67
2023-01-26T05:18:25.364Z,17.63
2023-01-26T05:21:17.285Z,19.50
2023-01-26T05:23:50.131Z,17.80
2023-01-26T05:26:33.607Z,16.05
2023-01-26T05:29:07.962Z,14.40
2023-01-26T05:31:36.633Z,18.45
2023-01-26T05:34:05.453Z,13.80
2023-01-26T05:36:36.254Z,17.35
2023-01-26T05:39:04.931Z,15.00
2023-01-26T05:41:35.541Z,12.85
2023-01-26T05:44:22.477Z,14.32
2023-01-26T05:46:59.021Z,16.88
2023-01-26T05:49:27.496Z,15.95
2023-01-26T05:51:56.624Z,15.18
2023-01-26T05:54:26.012Z,12.73
2023-01-26T05:56:57.617Z,13.73
2023-01-26T05:59:27.593Z,16.05
2023-01-26T06:01:56.858Z,16.48
2023-01-26T06:04:25.651Z,13.90
2023-01-26T06:07:00.212Z,17.77
2023-01-26T06:09:34.560Z,13.20
2023-01-26T06:12:20.169Z,15.05
2023-01-26T06:15:10.290Z,13.35
2023-01-26T06:17:41.880Z,15.90
2023-01-26T06:22:46.050Z,50.35
2023-01-26T06:25:14.645Z,11.10
2023-01-26T06:27:44.430Z,17.02
2023-01-26T06:30:20.631Z,12.88
2023-01-26T06:32:50.171Z,14.05
2023-01-26T06:35:19.266Z,13.23
2023-01-26T06:37:49.559Z,14.65
2023-01-26T06:40:18.896Z,14.68
2023-01-26T06:42:52.101Z,13.13
2023-01-26T06:45:21.695Z,12.35
2023-01-26T06:47:53.090Z,13.00
2023-01-26T06:50:26.379Z,13.90
2023-01-26T06:52:59.893Z,14.75
2023-01-26T06:55:52.739Z,12.50
2023-01-26T06:58:51.843Z,11.57
2023-01-26T07:01:42.268Z,13.45
2023-01-26T07:04:10.763Z,12.95
2023-01-26T07:06:39.283Z,14.43
2023-01-26T07:09:07.970Z,12.93
2023-01-26T07:11:36.537Z,13.48
2023-01-26T07:14:06.454Z,14.85
2023-01-26T07:16:34.981Z,14.60
2023-01-26T07:19:03.502Z,13.18
2023-01-26T07:21:32.077Z,9.95
2023-01-26T07:24:00.550Z,13.10
2023-01-26T07:26:29.063Z,11.73
2023-01-26T07:28:57.513Z,13.52
2023-01-26T07:31:27.461Z,15.18
2023-01-26T07:33:55.914Z,13.32
2023-01-26T07:36:24.340Z,11.45
2023-01-26T07:38:52.822Z,17.55
2023-01-26T07:41:21.685Z,13.23
2023-01-26T07:43:51.734Z,12.82
2023-01-26T07:46:20.653Z,12.10
2023-01-26T07:48:50.565Z,14.88
2023-01-26T07:51:19.093Z,10.20
2023-01-26T07:53:49.850Z,15.30
2023-01-26T07:56:20.578Z,17.35
2023-01-26T07:58:53.129Z,11.73
2023-01-26T08:01:22.271Z,12.30
2023-01-26T08:03:53.535Z,13.48
2023-01-26T08:06:22.922Z,15.07
2023-01-26T08:08:53.546Z,13.43
2023-01-26T08:11:24.272Z,16.00
2023-01-26T08:13:52.838Z,12.77
2023-01-26T08:16:21.245Z,12.02
2023-01-26T08:18:49.987Z,18.98
2023-01-26T08:21:20.862Z,16.67
2023-01-26T08:23:51.015Z,16.48
2023-01-26T08:26:20.904Z,15.05
2023-01-26T08:28:49.857Z,10.70
2023-01-26T08:31:20.554Z,12.27
2023-01-26T08:33:51.177Z,11.98
2023-01-26T08:36:22.803Z,13.18
2023-01-26T08:38:52.173Z,12.27
2023-01-26T08:41:20.791Z,9.65
2023-01-26T08:43:49.430Z,13.13
2023-01-26T08:46:18.718Z,10.98
2023-01-26T08:48:47.170Z,12.20
2023-01-26T08:51:15.587Z,13.73
2023-01-26T08:53:45.411Z,10.98
2023-01-26T08:56:14.293Z,12.50
2023-01-26T08:58:42.865Z,9.20
2023-01-26T09:01:13.473Z,11.95
2023-01-26T09:03:42.883Z,10.95
2023-01-26T09:06:13.531Z,13.15
2023-01-26T09:08:41.952Z,10.75
2023-01-26T09:11:12.179Z,9.65
2023-01-26T09:13:41.235Z,12.30
2023-01-26T09:16:16.836Z,10.57
2023-01-26T09:18:45.406Z,11.68
2023-01-26T09:21:13.880Z,11.95
2023-01-26T09:23:42.359Z,9.50
2023-01-26T09:26:12.523Z,9.27
2023-01-26T09:28:41.022Z,7.95
2023-01-26T09:31:11.597Z,10.63
2023-01-26T09:33:40.391Z,9.18
2023-01-26T09:36:11.473Z,9.82
2023-01-26T09:38:40.395Z,10.00
2023-01-26T09:41:24.448Z,7.88
2023-01-26T09:43:56.056Z,7.32
2023-01-26T09:46:28.786Z,8.77
2023-01-26T09:49:06.143Z,7.90
2023-01-26T09:51:37.225Z,6.32
2023-01-26T09:54:16.070Z,10.07
2023-01-26T09:56:46.742Z,8.63
2023-01-26T09:59:28.986Z,11.55
2023-01-26T10:02:02.410Z,7.82
2023-01-26T10:04:36.458Z,8.20
2023-01-26T10:07:10.223Z,8.90
2023-01-26T10:09:51.722Z,6.60
2023-01-26T10:12:25.485Z,8.20
2023-01-26T10:14:57.950Z,8.05
2023-01-26T10:17:29.582Z,8.80
2023-01-26T10:20:03.790Z,9.63
2023-01-26T10:22:41.316Z,9.13
2023-01-26T10:25:16.802Z,8.45
2023-01-26T10:27:47.552Z,6.30
2023-01-26T10:30:18.339Z,7.22
2023-01-26T10:32:49.094Z,7.20
2023-01-26T10:35:20.364Z,5.15
2023-01-26T10:37:49.832Z,7.47
2023-01-26T10:40:18.512Z,5.57
2023-01-26T10:42:58.020Z,6.60
2023-01-26T10:45:30.527Z,5.07
2023-01-26T10:48:18.016Z,5.82
2023-01-26T10:50:47.720Z,5.32
2023-01-26T10:53:19.026Z,5.45
2023-01-26T10:56:01.770Z,6.05
2023-01-26T11:01:15.667Z,4.72
2023-01-26T11:03:59.554Z,6.35
2023-01-26T11:06:29.967Z,7.43
2023-01-26T11:09:10.971Z,8.18
2023-01-26T11:11:39.954Z,6.25
2023-01-26T11:14:16.278Z,6.90
2023-01-26T11:16:51.160Z,6.05
2023-01-26T11:19:34.013Z,5.93
2023-01-26T11:22:08.137Z,7.25
2023-01-26T11:24:48.040Z,6.82
2023-01-26T11:27:29.830Z,6.60
2023-01-26T11:30:23.357Z,5.82
2023-01-26T11:33:01.599Z,5.63
2023-01-26T11:35:38.470Z,6.03
2023-01-26T11:38:23.081Z,5.57
2023-01-26T11:41:02.052Z,7.63
2023-01-26T11:44:09.185Z,5.07
2023-01-26T11:46:53.663Z,6.47
2023-01-26T11:49:48.273Z,7.53
2023-01-26T11:52:25.062Z,5.72
2023-01-26T11:57:40.881Z,8.75
2023-01-26T12:00:29.117Z,6.20
2023-01-26T12:05:37.975Z,4.57
2023-01-26T12:08:12.773Z,5.65
2023-01-26T12:10:51.995Z,5.70
2023-01-26T12:13:31.443Z,11.38
2023-01-26T12:16:06.532Z,7.00
2023-01-26T12:18:55.706Z,6.13
2023-01-26T12:21:29.538Z,6.85
2023-01-26T12:24:03.191Z,8.18
2023-01-26T12:26:37.794Z,9.43
2023-01-26T12:29:14.274Z,6.28
2023-01-26T12:31:49.848Z,7.65
2023-01-26T12:34:26.534Z,7.30
2023-01-26T12:37:07.061Z,7.38
2023-01-26T12:39:42.904Z,8.52
2023-01-26T12:42:20.409Z,7.30
2023-01-26T12:44:54.345Z,6.07
2023-01-26T12:47:30.129Z,6.85
2023-01-26T12:50:05.111Z,8.25
2023-01-26T12:52:38.887Z,7.90
2023-01-26T12:55:16.197Z,8.10
2023-01-26T12:57:50.795Z,9.35
2023-01-26T13:00:22.347Z,8.68
2023-01-26T13:02:57.064Z,9.23
2023-01-26T13:05:30.077Z,9.18
2023-01-26T13:07:59.467Z,6.75
2023-01-26T13:10:45.930Z,7.03
2023-01-26T13:13:30.396Z,6.85
2023-01-26T13:16:33.364Z,7.15
2023-01-26T13:19:03.474Z,7.72
2023-01-26T13:24:46.820Z,8.00
2023-01-26T13:27:30.984Z,7.43
2023-01-26T13:30:00.220Z,5.13
2023-01-26T13:33:03.100Z,6.15
2023-01-26T13:35:32.839Z,7.68
2023-01-26T13:38:10.896Z,6.18
2023-01-26T13:40:43.950Z,7.57
2023-01-26T13:43:26.810Z,7.03
2023-01-26T13:46:03.999Z,5.32
2023-01-26T13:48:45.907Z,6.05
2023-01-26T13:51:17.796Z,11.15
2023-01-26T13:53:56.135Z,8.25
2023-01-26T13:56:27.640Z,6.15
2023-01-26T13:59:08.828Z,8.38
2023-01-26T14:01:43.708Z,4.70
2023-01-26T14:04:20.137Z,6.97
2023-01-26T14:06:56.352Z,7.55
2023-01-26T14:09:28.157Z,6.50
2023-01-26T14:12:00.716Z,7.78
2023-01-26T14:14:32.749Z,5.78
2023-01-26T14:17:01.840Z,9.65
2023-01-26T14:19:30.407Z,7.55
2023-01-26T14:22:01.251Z,6.82
2023-01-26T14:24:35.729Z,6.18
2023-01-26T14:27:04.818Z,6.50
2023-01-26T14:29:39.753Z,8.07
2023-01-26T14:32:16.665Z,6.97
2023-01-26T14:34:54.196Z,6.75
2023-01-26T14:37:24.295Z,5.85
2023-01-26T14:40:17.544Z,7.00
2023-01-26T14:42:46.687Z,5.05
2023-01-26T14:45:15.610Z,7.65
2023-01-26T14:47:45.313Z,5.70
2023-01-26T14:50:20.696Z,6.85
2023-01-26T14:52:49.195Z,7.95
2023-01-26T14:55:23.622Z,6.60
2023-01-26T14:57:52.676Z,8.00
2023-01-26T15:00:26.686Z,6.40
2023-01-26T15:02:56.882Z,6.40
2023-01-26T15:05:33.318Z,6.10
2023-01-26T15:08:03.614Z,5.95
2023-01-26T15:10:37.161Z,9.13
2023-01-26T15:13:21.392Z,6.85
2023-01-26T15:16:04.075Z,6.57
2023-01-26T15:18:33.831Z,8.55
2023-01-26T15:21:12.962Z,8.15
2023-01-26T15:23:43.899Z,7.28
2023-01-26T15:26:25.850Z,11.05
2023-01-26T15:28:56.259Z,11.13
2023-01-26T15:33:58.665Z,7.68
2023-01-26T15:36:35.839Z,10.23
2023-01-26T15:39:14.106Z,8.63
2023-01-26T15:41:45.411Z,7.47
2023-01-26T15:44:17.328Z,8.07
2023-01-26T15:46:46.211Z,8.25
2023-01-26T15:49:15.208Z,10.30
2023-01-26T15:51:43.666Z,8.90
2023-01-26T15:54:12.518Z,11.18
2023-01-26T15:56:41.083Z,9.68
2023-01-26T15:59:10.989Z,11.57
2023-01-26T16:01:40.220Z,10.52
2023-01-26T16:04:12.339Z,10.43
2023-01-26T16:06:41.156Z,12.98
2023-01-26T16:09:09.643Z,9.68
2023-01-26T16:11:47.329Z,9.63
2023-01-26T16:14:17.626Z,10.00
2023-01-26T16:16:46.175Z,11.27
2023-01-26T16:19:26.304Z,9.90
2023-01-26T16:22:03.324Z,17.42
2023-01-26T16:24:31.844Z,14.80
2023-01-26T16:27:00.409Z,15.93
2023-01-26T16:29:31.282Z,11.48
2023-01-26T16:32:01.356Z,13.10
2023-01-26T16:34:30.534Z,13.20
2023-01-26T16:36:59.054Z,10.82
2023-01-26T16:39:28.230Z,13.77
2023-01-26T16:41:56.727Z,9.70
2023-01-26T16:44:25.190Z,13.43
2023-01-26T16:46:55.109Z,14.88
2023-01-26T16:49:23.621Z,17.33
2023-01-26T16:51:52.186Z,16.50
2023-01-26T16:54:20.663Z,13.13
2023-01-26T16:56:49.112Z,12.80
2023-01-26T16:59:17.575Z,8.93
2023-01-26T17:01:46.662Z,13.55
2023-01-26T17:04:16.532Z,11.65
2023-01-26T17:06:45.112Z,12.93
2023-01-26T17:09:14.225Z,10.45
2023-01-26T17:11:42.761Z,15.85
2023-01-26T17:14:13.001Z,15.98
2023-01-26T17:16:41.624Z,13.05
2023-01-26T17:19:10.192Z,14.10
2023-01-26T17:21:40.043Z,14.15
2023-01-26T17:24:08.640Z,16.90
2023-01-26T17:26:37.381Z,16.67
2023-01-26T17:29:05.776Z,16.15
2023-01-26T17:31:35.016Z,15.38
2023-01-26T17:34:03.619Z,13.50
2023-01-26T17:36:32.491Z,12.25
2023-01-26T17:39:02.313Z,16.10
2023-01-26T17:41:30.737Z,14.43
2023-01-26T17:43:59.114Z,21.63
2023-01-26T17:46:27.513Z,33.15
2023-01-26T17:48:56.164Z,36.35
2023-01-26T17:51:24.596Z,19.13
2023-01-26T17:53:54.222Z,16.55
2023-01-26T17:56:24.933Z,16.08
2023-01-26T17:58:55.180Z,19.73
2023-01-26T18:01:25.425Z,11.48
2023-01-26T18:03:54.551Z,18.35
2023-01-26T18:06:23.087Z,18.75
2023-01-26T18:08:51.896Z,16.00
2023-01-26T18:11:20.397Z,17.30
2023-01-26T18:13:51.706Z,20.23
2023-01-26T18:16:21.569Z,19.85
2023-01-26T18:18:50.095Z,18.15
2023-01-26T18:21:22.514Z,17.02
2023-01-26T18:23:52.651Z,14.52
2023-01-26T18:26:23.714Z,13.30
2023-01-26T18:28:53.931Z,23.17
2023-01-26T18:31:24.216Z,13.68
2023-01-26T18:36:22.148Z,13.35
2023-01-26T18:38:52.499Z,19.92
2023-01-26T18:43:51.390Z,14.93
2023-01-26T18:46:22.294Z,15.43
2023-01-26T18:48:53.507Z,13.65
2023-01-26T18:51:22.620Z,21.60
2023-01-26T18:53:51.240Z,16.25
2023-01-26T18:56:19.703Z,14.82
2023-01-26T18:58:48.197Z,16.20
2023-01-26T19:01:18.784Z,12.38
2023-01-26T19:03:54.899Z,16.88
2023-01-26T19:06:25.514Z,18.85
2023-01-26T19:09:00.239Z,16.10
2023-01-26T19:11:31.394Z,15.05
2023-01-26T19:14:01.369Z,14.50
2023-01-26T19:16:30.859Z,19.58
2023-01-26T19:19:00.718Z,13.82
2023-01-26T19:21:31.322Z,15.38
2023-01-26T19:24:02.422Z,16.83
2023-01-26T19:26:31.029Z,12.68
2023-01-26T19:29:00.225Z,12.05
2023-01-26T19:31:29.391Z,16.17
2023-01-26T19:34:00.949Z,12.60
2023-01-26T19:36:31.810Z,12.77
2023-01-26T19:39:01.453Z,13.45
2023-01-26T19:41:30.139Z,12.68
2023-01-26T19:43:58.610Z,13.70
2023-01-26T19:46:27.134Z,16.88
2023-01-26T19:48:55.700Z,11.40
2023-01-26T19:51:27.699Z,15.63
2023-01-26T19:53:58.622Z,12.52
2023-01-26T19:56:28.707Z,14.88
2023-01-26T19:58:58.773Z,16.65
2023-01-26T20:01:28.834Z,12.95
2023-01-26T20:03:59.288Z,15.52
2023-01-26T20:06:31.048Z,10.82
2023-01-26T20:09:00.478Z,10.07
2023-01-26T20:11:29.813Z,9.93
2023-01-26T20:14:00.224Z,13.55
2023-01-26T20:21:29.365Z,8.35
2023-01-26T20:24:04.723Z,11.50
2023-01-26T20:26:34.463Z,9.32
2023-01-26T20:29:03.246Z,10.68
2023-01-26T20:31:32.739Z,9.02
2023-01-26T20:34:01.935Z,11.40
2023-01-26T20:36:33.988Z,9.60
2023-01-26T20:39:03.453Z,7.43
2023-01-26T20:41:33.296Z,18.30
2023-01-26T20:44:04.341Z,13.95
2023-01-26T20:46:34.716Z,12.10
2023-01-26T20:51:35.826Z,11.73
2023-01-26T20:54:06.418Z,12.68
2023-01-26T20:56:35.476Z,9.90
2023-01-26T20:59:04.280Z,9.32
2023-01-26T21:01:34.860Z,10.20
2023-01-26T21:04:04.558Z,11.30
2023-01-26T21:06:35.310Z,9.55
2023-01-26T21:09:05.063Z,9.85
2023-01-26T21:11:35.100Z,10.40
2023-01-26T21:14:03.632Z,12.23
2023-01-26T21:16:35.627Z,14.75
2023-01-26T21:19:04.400Z,13.85
2023-01-26T21:21:34.487Z,9.43
2023-01-26T21:24:02.994Z,11.27
2023-01-26T21:26:32.776Z,8.35
2023-01-26T21:29:01.400Z,11.18
2023-01-26T21:31:32.286Z,10.10
2023-01-26T21:34:01.602Z,12.85
2023-01-26T21:36:31.767Z,9.40
2023-01-26T21:39:02.116Z,10.63
2023-01-26T21:44:18.750Z,9.18
2023-01-26T21:46:48.508Z,9.32
2023-01-26T21:49:17.525Z,9.77
2023-01-26T21:52:14.829Z,8.93
2023-01-26T21:54:44.727Z,10.07
2023-01-26T21:57:30.590Z,9.23
2023-01-26T21:59:59.104Z,8.85
2023-01-26T22:02:27.553Z,8.63
2023-01-26T22:04:56.025Z,8.60
2023-01-26T22:07:24.417Z,11.55
2023-01-26T22:09:54.207Z,10.27
2023-01-26T22:12:22.956Z,10.07
2023-01-26T22:14:51.799Z,11.57
2023-01-26T22:17:20.229Z,8.95
2023-01-26T22:19:48.598Z,7.75
2023-01-26T22:22:17.057Z,9.95
2023-01-26T22:24:45.557Z,8.88
2023-01-26T22:27:15.362Z,8.95
2023-01-26T22:29:43.876Z,8.40
2023-01-26T22:32:12.253Z,9.35
2023-01-26T22:34:40.689Z,10.90
2023-01-26T22:37:09.124Z,8.90
2023-01-26T22:39:37.659Z,10.38
2023-01-26T22:42:06.155Z,13.57
2023-01-26T22:44:36.568Z,10.60
2023-01-26T22:49:33.424Z,9.82
2023-01-26T22:52:01.817Z,8.38
2023-01-26T22:54:30.250Z,12.45
2023-01-26T22:56:58.698Z,11.77
2023-01-26T22:59:27.301Z,9.02
2023-01-26T23:01:57.200Z,11.45
2023-01-26T23:04:25.724Z,9.23
2023-01-26T23:06:54.176Z,10.27
2023-01-26T23:09:22.617Z,8.80
2023-01-26T23:12:01.770Z,12.07
2023-01-26T23:14:30.838Z,9.25
2023-01-26T23:17:00.685Z,10.80
2023-01-26T23:19:30.038Z,10.77
2023-01-26T23:21:58.503Z,9.20
2023-01-26T23:24:26.974Z,10.38
2023-01-26T23:26:55.418Z,9.60
2023-01-26T23:29:23.815Z,9.30
2023-01-26T23:31:52.489Z,8.88
2023-01-26T23:34:22.524Z,10.80
2023-01-26T23:36:50.926Z,10.88
2023-01-26T23:39:19.537Z,12.68
2023-01-26T23:41:47.950Z,11.98
2023-01-26T23:44:16.363Z,12.00
2023-01-26T23:46:44.970Z,10.25
2023-01-26T23:49:13.553Z,12.13
2023-01-26T23:51:43.386Z,8.13
2023-01-26T23:54:11.768Z,11.20
2023-01-26T23:56:40.247Z,12.40
2023-01-26T23:59:08.696Z,13.60
